Terminal Aerodrome Forecast
Issued by NWS Topeka, KS

Home | Current Version | Previous Version | Text Only | Print | Product List | Glossary On
Versions: 1 2 3 4 5 6 7 8 9 10 11 12 13 14
000
FTUS43 KTOP 050520
TAFTOP
TAF
KTOP 050520Z 0506/0606 13003KT P6SM BKN110
     FM050900 11003KT P6SM -SHRA VCTS SCT015 BKN040CB
      TEMPO 0510/0513 3SM BR OVC015
     FM051500 11005KT P6SM -SHRA VCTS SCT015 BKN025CB
     FM052000 10008KT P6SM VCTS BKN050CB
     FM060100 07004KT P6SM BKN250=

USA.gov is the U.S. government's official web portal to all federal, state and local government web resources and services.